createdAt,value
2023-06-13T04:52:20.067Z,58.62
2023-06-13T04:57:28.912Z,57.91
2023-06-13T05:02:36.989Z,58.12
2023-06-13T05:08:07.301Z,57.57
2023-06-13T05:13:13.539Z,57.37
2023-06-13T05:18:22.073Z,57.32
2023-06-13T05:23:29.945Z,57.45
2023-06-13T05:28:34.205Z,57.01
2023-06-13T05:33:39.322Z,57.49
2023-06-13T05:38:43.510Z,57.07
2023-06-13T05:43:47.726Z,57.30
2023-06-13T05:48:51.965Z,56.77
2023-06-13T05:53:56.117Z,57.08
2023-06-13T05:59:00.377Z,56.79
2023-06-13T06:04:04.856Z,56.33
2023-06-13T06:09:10.229Z,56.25
2023-06-13T06:14:14.275Z,55.80
2023-06-13T06:19:18.883Z,56.17
2023-06-13T06:24:25.352Z,56.45
2023-06-13T06:29:29.508Z,57.12
2023-06-13T06:34:33.745Z,57.87
2023-06-13T06:39:37.818Z,60.08
2023-06-13T06:44:45.606Z,61.31
2023-06-13T06:49:50.114Z,63.71
2023-06-13T06:54:54.075Z,61.61
2023-06-13T06:59:58.168Z,60.14
2023-06-13T07:05:02.440Z,62.30
2023-06-13T07:10:07.663Z,61.75
2023-06-13T07:15:11.767Z,61.40
2023-06-13T07:20:16.165Z,62.42
2023-06-13T07:25:23.760Z,62.12
2023-06-13T07:30:27.741Z,61.52
2023-06-13T07:35:33.913Z,62.26
2023-06-13T07:40:39.336Z,62.98
2023-06-13T07:45:43.548Z,62.44
2023-06-13T07:50:49.824Z,63.44
2023-06-13T07:55:57.622Z,64.89
2023-06-13T08:01:01.859Z,63.19
2023-06-13T08:06:06.271Z,63.03
2023-06-13T08:11:11.145Z,64.56
2023-06-13T08:16:15.451Z,65.44
2023-06-13T08:21:19.565Z,65.13
2023-06-13T08:26:24.287Z,65.54
2023-06-13T08:36:47.253Z,63.15
2023-06-13T08:41:51.874Z,62.20
2023-06-13T08:47:27.071Z,61.12
2023-06-13T08:52:42.818Z,60.88
2023-06-13T08:57:51.196Z,60.20
2023-06-13T09:02:57.788Z,60.19
2023-06-13T09:08:28.067Z,60.44
2023-06-13T09:13:30.398Z,60.29
2023-06-13T09:18:40.753Z,60.38
2023-06-13T09:23:45.138Z,60.18
2023-06-13T09:28:49.738Z,59.80
2023-06-13T09:33:55.140Z,59.02
2023-06-13T09:39:01.774Z,59.28
2023-06-13T09:44:07.107Z,59.07
2023-06-13T09:49:11.863Z,58.88
2023-06-13T09:54:17.721Z,59.22
2023-06-13T09:59:21.887Z,59.33
2023-06-13T10:04:26.935Z,58.65
2023-06-13T10:09:31.301Z,58.49
2023-06-13T10:14:40.956Z,57.45
2023-06-13T10:19:49.936Z,57.13
2023-06-13T10:24:57.586Z,57.45
2023-06-13T10:30:06.579Z,56.88
2023-06-13T10:35:32.311Z,56.92
2023-06-13T10:41:01.736Z,55.44
2023-06-13T10:46:09.004Z,55.15
2023-06-13T10:51:13.066Z,55.16
2023-06-13T10:56:20.472Z,53.95
2023-06-13T11:01:27.373Z,53.59
2023-06-13T11:06:31.786Z,53.33
2023-06-13T11:12:02.171Z,52.41
2023-06-13T11:17:07.760Z,52.27
2023-06-13T11:22:15.219Z,52.22
2023-06-13T11:27:19.290Z,51.82
2023-06-13T11:32:24.314Z,51.53
2023-06-13T11:37:47.261Z,51.20
2023-06-13T11:42:52.020Z,51.64
2023-06-13T11:48:02.469Z,51.40
2023-06-13T11:53:08.693Z,51.16
2023-06-13T11:58:12.891Z,51.29
2023-06-13T12:03:20.810Z,50.67
2023-06-13T12:08:25.057Z,50.50
2023-06-13T12:13:29.145Z,50.62
2023-06-13T12:18:33.453Z,50.34
2023-06-13T12:23:39.750Z,49.98
2023-06-13T12:28:44.837Z,50.06
2023-06-13T12:33:49.360Z,49.77
2023-06-13T12:38:53.437Z,50.11
2023-06-13T12:43:57.561Z,50.00
2023-06-13T12:49:02.588Z,50.03
2023-06-13T12:54:25.462Z,49.36
2023-06-13T12:59:32.672Z,49.95
2023-06-13T13:04:38.423Z,49.84
2023-06-13T13:09:45.182Z,49.84
2023-06-13T13:14:49.559Z,49.93
2023-06-13T13:19:54.889Z,49.89
2023-06-13T13:24:58.957Z,49.83
2023-06-13T13:30:03.399Z,49.66
2023-06-13T13:35:10.807Z,49.45
2023-06-13T13:40:17.729Z,49.42
2023-06-13T13:45:24.759Z,49.03
2023-06-13T13:50:29.981Z,49.58
2023-06-13T13:55:35.720Z,49.25
2023-06-13T14:00:41.478Z,49.34
2023-06-13T14:05:47.050Z,48.84
2023-06-13T14:10:52.702Z,48.29
2023-06-13T14:15:58.268Z,48.38
2023-06-13T14:21:03.961Z,47.97
2023-06-13T14:26:09.994Z,48.20
2023-06-13T14:31:15.481Z,48.30
2023-06-13T14:36:20.835Z,49.04
2023-06-13T14:41:26.895Z,48.87
2023-06-13T14:46:32.311Z,48.18
2023-06-13T14:51:37.918Z,46.97
2023-06-13T14:56:43.532Z,45.36
2023-06-13T15:01:48.932Z,43.78
2023-06-13T15:06:56.253Z,43.01
2023-06-13T15:12:07.927Z,43.00
2023-06-13T15:17:14.183Z,43.38
2023-06-13T15:22:20.207Z,43.10
2023-06-13T15:27:25.922Z,42.71
2023-06-13T15:32:30.787Z,42.87
2023-06-13T15:37:36.227Z,42.75
2023-06-13T15:42:41.731Z,42.86
2023-06-13T15:47:47.615Z,42.89
2023-06-13T15:52:53.218Z,43.16
2023-06-13T15:57:58.638Z,45.45
2023-06-13T16:03:05.324Z,46.59
2023-06-13T16:08:10.879Z,47.67
2023-06-13T16:13:16.328Z,48.77
2023-06-13T16:18:22.505Z,49.22
2023-06-13T16:23:28.176Z,49.46
2023-06-13T16:28:35.880Z,49.40
2023-06-13T16:33:42.050Z,49.11
2023-06-13T16:38:47.653Z,49.21
2023-06-13T16:43:53.312Z,49.45
2023-06-13T16:48:58.846Z,49.42
2023-06-13T16:54:04.534Z,49.60
2023-06-13T16:59:10.150Z,50.12
2023-06-13T17:04:15.666Z,50.32
2023-06-13T17:09:21.287Z,50.42
2023-06-13T17:14:27.184Z,49.97
2023-06-13T17:19:33.148Z,49.67
2023-06-13T17:24:38.935Z,49.68
2023-06-13T17:29:44.518Z,49.91
2023-06-13T17:34:50.075Z,50.24
2023-06-13T17:39:55.746Z,50.19
2023-06-13T17:45:01.493Z,49.67
2023-06-13T17:50:08.998Z,48.99
2023-06-13T17:55:14.905Z,48.83
2023-06-13T18:00:20.661Z,49.65
2023-06-13T18:05:26.119Z,49.73
2023-06-13T18:10:32.367Z,50.34
2023-06-13T18:15:37.995Z,50.15
2023-06-13T18:20:43.621Z,50.13
2023-06-13T18:25:50.254Z,50.02
2023-06-13T18:30:55.738Z,49.47
2023-06-13T18:36:02.198Z,49.14
2023-06-13T18:41:07.650Z,49.42
2023-06-13T18:46:13.334Z,49.25
2023-06-13T18:51:19.479Z,49.33
2023-06-13T18:56:52.726Z,49.55
2023-06-13T19:01:58.066Z,49.94
2023-06-13T19:07:03.594Z,50.15
2023-06-13T19:12:09.905Z,50.44
2023-06-13T19:17:15.795Z,50.91
2023-06-13T19:22:21.369Z,51.30
2023-06-13T19:27:27.488Z,50.67
2023-06-13T19:32:34.178Z,50.89
2023-06-13T19:37:41.226Z,49.93
2023-06-13T19:42:54.140Z,50.78
2023-06-13T19:48:33.992Z,49.91
2023-06-13T19:53:39.596Z,49.87
2023-06-13T19:58:45.586Z,50.01
2023-06-13T20:03:53.326Z,49.90
2023-06-13T20:08:58.730Z,49.28
2023-06-13T20:14:04.915Z,48.89
2023-06-13T20:19:10.436Z,48.68
2023-06-13T20:24:17.056Z,48.99
2023-06-13T20:29:22.430Z,50.40
2023-06-13T20:34:28.044Z,50.42
2023-06-13T20:39:33.618Z,50.30
2023-06-13T20:44:45.871Z,50.03
2023-06-13T20:49:52.275Z,49.95
2023-06-13T20:55:01.983Z,49.61
2023-06-13T21:00:27.724Z,49.84
2023-06-13T21:05:33.210Z,50.14
2023-06-13T21:10:38.300Z,49.82
2023-06-13T21:15:50.286Z,49.96
2023-06-13T21:20:57.924Z,49.65
2023-06-13T21:26:03.467Z,49.63
2023-06-13T21:31:10.176Z,49.22
2023-06-13T21:36:15.600Z,48.73
2023-06-13T21:41:22.961Z,48.60
2023-06-13T21:46:28.475Z,48.48
2023-06-13T21:51:34.204Z,48.89
2023-06-13T21:56:39.378Z,48.79
2023-06-13T22:01:46.456Z,48.68
2023-06-13T22:06:51.939Z,48.18
2023-06-13T22:11:57.526Z,48.30
2023-06-13T22:17:05.455Z,47.93
2023-06-13T22:22:11.007Z,47.73
2023-06-13T22:27:17.103Z,47.59
2023-06-13T22:32:22.786Z,47.59
2023-06-13T22:37:28.773Z,47.27
2023-06-13T22:42:35.247Z,47.42
2023-06-13T22:47:41.152Z,47.49
2023-06-13T22:52:47.084Z,47.71
2023-06-13T22:57:52.639Z,48.22
2023-06-13T23:03:00.521Z,48.46
2023-06-13T23:08:07.790Z,48.33
2023-06-13T23:13:13.234Z,48.17
2023-06-13T23:18:18.706Z,48.55
2023-06-13T23:23:24.270Z,47.79
2023-06-13T23:28:32.867Z,47.42
2023-06-13T23:33:38.889Z,47.54
2023-06-13T23:38:45.407Z,47.81
2023-06-13T23:44:15.056Z,47.95
2023-06-13T23:49:20.447Z,48.94
2023-06-13T23:54:26.429Z,49.15
2023-06-13T23:59:33.616Z,49.19
